KSPB

Scappoose Industrial Airpark

Scappoose, Oregon, USA
METAR KSPB 170253Z AUTO 27004KT 10SM CLR 12/06 A3018 RMK AO2 SLP221 T01220061 53004
Observed Flight Rules
Oct-17 @ 02:53 UTC (16 minutes ago) Visual Flight Rules
Wind Visibility Clouds
270° at 4 knots 10 miles
  • Clear skies
Temperatures Readings
Current 12°C / 54°F
Dewpoint 6°C / 43°F
Humidity 67%
Altimeter 30.18" Hg
Pressure 1022.1 hPa
Elevation 14
METAR KSPB 170253Z AUTO 27004KT 10SM CLR 12/06 A3018 RMK AO2 SLP221 T01220061 53004
Observed Flight Rules
Oct-17 @ 02:53 UTC
(16 minutes ago)
VFR
Wind Visibility
270° at 4 knots 10 miles
Clouds
  • Clear skies
Temperature Dewpoint
12°C / 54°F 6°C / 43°F
Humidity Altimeter Pressure
67% 30.18" Hg 1022.1 hPa